createdAt,value
2024-03-12T00:01:29.100Z,94755.13
2024-03-12T00:04:30.979Z,94757.44
2024-03-12T00:07:32.987Z,94757.06
2024-03-12T00:10:36.480Z,94756.66
2024-03-12T00:13:38.300Z,94753.97
2024-03-12T00:16:40.188Z,94767.00
2024-03-12T00:19:41.939Z,94767.81
2024-03-12T00:22:44.039Z,94767.09
2024-03-12T00:25:47.194Z,94769.78
2024-03-12T00:28:49.061Z,94765.91
2024-03-12T00:31:51.128Z,94775.91
2024-03-12T00:34:52.935Z,94778.22
2024-03-12T00:37:54.956Z,94770.53
2024-03-12T00:40:58.320Z,94784.03
2024-03-12T00:44:00.261Z,94776.75
2024-03-12T00:47:02.136Z,94779.09
2024-03-12T00:50:04.307Z,94776.72
2024-03-12T00:53:06.362Z,94784.06
2024-03-12T00:56:09.441Z,94789.47
2024-03-12T00:59:11.339Z,94790.59
2024-03-12T01:02:13.127Z,94785.66
2024-03-12T01:05:15.244Z,94787.91
2024-03-12T01:08:17.074Z,94788.34
2024-03-12T01:11:20.562Z,94783.34
2024-03-12T01:14:22.546Z,94785.66
2024-03-12T01:17:24.406Z,94784.88
2024-03-12T01:20:26.789Z,94779.88
2024-03-12T01:23:28.669Z,94789.44
2024-03-12T01:26:31.882Z,94788.31
2024-03-12T01:29:33.660Z,94795.13
2024-03-12T01:32:35.502Z,94793.22
2024-03-12T01:35:37.354Z,94805.13
2024-03-12T01:38:39.276Z,94798.63
2024-03-12T01:41:43.160Z,94800.16
2024-03-12T01:44:45.834Z,94802.06
2024-03-12T01:47:47.828Z,94809.38
2024-03-12T01:50:50.372Z,94806.69
2024-03-12T01:53:52.284Z,94811.69
2024-03-12T01:56:55.495Z,94813.22
2024-03-12T01:59:57.287Z,94807.94
2024-03-12T02:02:59.023Z,94821.81
2024-03-12T02:06:00.969Z,94826.78
2024-03-12T02:09:02.942Z,94834.44
2024-03-12T02:12:06.844Z,94832.06
2024-03-12T02:15:09.259Z,94840.53
2024-03-12T02:18:11.132Z,94840.53
2024-03-12T02:21:13.237Z,94842.03
2024-03-12T02:24:16.534Z,94846.19
2024-03-12T02:27:18.753Z,94853.88
2024-03-12T02:30:21.014Z,94854.59
2024-03-12T02:33:23.072Z,94862.25
2024-03-12T02:36:25.145Z,94858.38
2024-03-12T02:39:28.502Z,94860.38
2024-03-12T02:42:30.801Z,94866.44
2024-03-12T02:45:32.883Z,94873.69
2024-03-12T02:48:34.838Z,94866.44
2024-03-12T02:51:36.821Z,94876.41
2024-03-12T02:54:40.419Z,94888.38
2024-03-12T02:57:42.877Z,94884.09
2024-03-12T03:00:45.037Z,94882.88
2024-03-12T03:03:46.960Z,94882.19
2024-03-12T03:06:48.930Z,94894.50
2024-03-12T03:09:52.511Z,94898.75
2024-03-12T03:12:54.454Z,94902.97
2024-03-12T03:15:56.674Z,94904.91
2024-03-12T03:18:58.708Z,94907.97
2024-03-12T03:22:00.705Z,94901.44
2024-03-12T03:25:04.127Z,94906.44
2024-03-12T03:28:06.433Z,94914.84
2024-03-12T03:31:08.706Z,94916.81
2024-03-12T03:34:10.786Z,94912.59
2024-03-12T03:37:12.930Z,94922.50
2024-03-12T03:40:16.567Z,94912.13
2024-03-12T03:43:18.519Z,94912.41
2024-03-12T03:46:20.443Z,94909.69
2024-03-12T03:49:22.432Z,94932.69
2024-03-12T03:52:24.327Z,94931.56
2024-03-12T03:55:27.486Z,94928.09
2024-03-12T03:58:29.368Z,94941.88
2024-03-12T04:01:31.274Z,94944.56
2024-03-12T04:04:33.278Z,94943.03
2024-03-12T04:07:35.299Z,94949.53
2024-03-12T04:10:38.640Z,94949.84
2024-03-12T04:13:40.653Z,94968.31
2024-03-12T04:16:45.070Z,94972.91
2024-03-12T04:19:46.974Z,94972.88
2024-03-12T04:22:48.908Z,94974.34
2024-03-12T04:25:52.567Z,94987.50
2024-03-12T04:28:54.492Z,94992.50
2024-03-12T04:31:56.478Z,94998.28
2024-03-12T04:34:58.479Z,94999.44
2024-03-12T04:38:00.414Z,95007.50
2024-03-12T04:41:03.790Z,95003.63
2024-03-12T04:44:05.739Z,95002.81
2024-03-12T04:47:07.553Z,95023.13
2024-03-12T04:50:09.969Z,95017.72
2024-03-12T04:53:11.717Z,95028.06
2024-03-12T04:56:14.991Z,95031.84
2024-03-12T04:59:17.285Z,95033.34
2024-03-12T05:02:19.038Z,95031.38
2024-03-12T05:05:21.209Z,95038.00
2024-03-12T05:08:23.356Z,95045.72
2024-03-12T05:11:26.835Z,95054.91
2024-03-12T05:14:28.663Z,95054.56
2024-03-12T05:17:30.643Z,95058.03
2024-03-12T05:20:32.492Z,95056.41
2024-03-12T05:23:34.398Z,95059.47
2024-03-12T05:26:37.774Z,95057.97
2024-03-12T05:29:39.524Z,95059.78
2024-03-12T05:32:41.669Z,95065.97
2024-03-12T05:35:43.808Z,95061.31
2024-03-12T05:38:45.572Z,95067.84
2024-03-12T05:41:51.985Z,95069.00
2024-03-12T05:44:53.809Z,95072.41
2024-03-12T05:47:55.704Z,95071.63
2024-03-12T05:50:57.825Z,95071.06
2024-03-12T05:53:59.790Z,95078.44
2024-03-12T05:57:03.151Z,95082.16
2024-03-12T06:00:06.463Z,95083.72
2024-03-12T06:03:08.788Z,95082.94
2024-03-12T06:06:17.648Z,95077.91
2024-03-12T06:09:19.548Z,95092.25
2024-03-12T06:12:23.013Z,95101.44
2024-03-12T06:15:25.080Z,95109.59
2024-03-12T06:18:27.476Z,95109.22
2024-03-12T06:21:29.456Z,95112.25
2024-03-12T06:24:31.398Z,95119.84
2024-03-12T06:27:34.950Z,95123.66
2024-03-12T06:30:37.199Z,95131.44
2024-03-12T06:33:39.351Z,95134.13
2024-03-12T06:36:41.668Z,95133.00
2024-03-12T06:39:43.809Z,95139.50
2024-03-12T06:42:47.173Z,95142.78
2024-03-12T06:45:49.622Z,95146.31
2024-03-12T06:48:51.399Z,95152.25
2024-03-12T06:51:53.263Z,95147.38
2024-03-12T06:54:55.478Z,95153.13
2024-03-12T06:57:59.225Z,95143.72
2024-03-12T07:01:01.341Z,95148.34
2024-03-12T07:04:03.594Z,95153.13
2024-03-12T07:07:05.695Z,95158.16
2024-03-12T07:10:08.065Z,95152.88
2024-03-12T07:13:11.475Z,95165.28
2024-03-12T07:16:13.555Z,95165.16
2024-03-12T07:19:15.954Z,95166.53
2024-03-12T07:22:18.513Z,95172.34
2024-03-12T07:25:23.504Z,95166.19
2024-03-12T07:28:27.078Z,95167.44
2024-03-12T07:31:29.526Z,95177.38
2024-03-12T07:34:31.964Z,95178.13
2024-03-12T07:37:35.596Z,95181.56
2024-03-12T07:40:37.447Z,95189.56
2024-03-12T07:43:40.805Z,95183.53
2024-03-12T07:46:42.788Z,95185.78
2024-03-12T07:49:44.798Z,95191.53
2024-03-12T07:52:47.080Z,95189.19
2024-03-12T07:55:49.415Z,95205.38
2024-03-12T07:58:53.069Z,95199.25
2024-03-12T08:01:55.565Z,95203.97
2024-03-12T08:04:57.509Z,95210.00
2024-03-12T08:07:59.482Z,95219.19
2024-03-12T08:11:04.741Z,95216.63
2024-03-12T08:14:11.536Z,95220.63
2024-03-12T08:17:13.468Z,95220.69
2024-03-12T08:20:28.275Z,95221.63
2024-03-12T08:23:30.231Z,95216.53
2024-03-12T08:26:32.532Z,95235.72
2024-03-12T08:29:35.682Z,95233.78
2024-03-12T08:32:37.694Z,95238.81
2024-03-12T08:35:39.614Z,95237.56
2024-03-12T08:38:41.485Z,95245.34
2024-03-12T08:41:43.458Z,95244.22
2024-03-12T08:44:46.942Z,95251.03
2024-03-12T08:47:48.842Z,95247.66
2024-03-12T08:50:50.919Z,95241.16
2024-03-12T08:53:52.859Z,95265.38
2024-03-12T08:56:55.110Z,95246.38
2024-03-12T08:59:59.330Z,95252.44
2024-03-12T09:03:10.984Z,95244.41
2024-03-12T09:06:16.143Z,95253.16
2024-03-12T09:09:17.948Z,95244.16
2024-03-12T09:12:19.760Z,95253.94
2024-03-12T09:15:25.914Z,95269.69
2024-03-12T09:18:28.002Z,95276.19
2024-03-12T09:21:53.044Z,95277.75
2024-03-12T09:24:55.200Z,95273.13
2024-03-12T09:27:57.170Z,95279.25
2024-03-12T09:31:01.591Z,95284.13
2024-03-12T09:34:04.121Z,95292.56
2024-03-12T09:37:08.211Z,95293.31
2024-03-12T09:40:11.313Z,95285.22
2024-03-12T09:43:17.969Z,95294.53
2024-03-12T09:46:23.103Z,95288.72
2024-03-12T09:49:27.023Z,95284.59
2024-03-12T09:52:30.094Z,95288.69
2024-03-12T09:55:32.526Z,95281.81
2024-03-12T09:58:34.527Z,95278.53
2024-03-12T10:01:39.724Z,95285.47
2024-03-12T10:04:41.716Z,95286.34
2024-03-12T10:08:08.353Z,95279.50
2024-03-12T10:11:11.194Z,95288.03
2024-03-12T10:14:13.390Z,95293.88
2024-03-12T10:17:17.936Z,95288.56
2024-03-12T10:20:20.484Z,95291.69
2024-03-12T10:23:23.612Z,95300.88
2024-03-12T10:26:28.994Z,95296.22
2024-03-12T10:29:34.588Z,95294.72
2024-03-12T10:32:37.796Z,95302.78
2024-03-12T10:35:39.769Z,95300.84
2024-03-12T10:38:42.188Z,95308.09
2024-03-12T10:41:48.146Z,95310.53
2024-03-12T10:44:55.110Z,95301.38
2024-03-12T10:48:07.774Z,95305.66
2024-03-12T10:51:20.212Z,95309.06
2024-03-12T10:54:27.513Z,95304.44
2024-03-12T10:57:32.121Z,95311.41
2024-03-12T11:03:41.630Z,95301.09
2024-03-12T11:06:46.012Z,95304.66
2024-03-12T11:09:49.333Z,95301.66
2024-03-12T11:12:51.578Z,95294.47
2024-03-12T11:16:14.187Z,95293.09
2024-03-12T11:19:22.474Z,95288.09
2024-03-12T11:22:28.442Z,95288.53
2024-03-12T11:25:41.558Z,95293.22
2024-03-12T11:29:14.326Z,95294.38
2024-03-12T11:32:19.864Z,95296.28
2024-03-12T11:35:30.808Z,95293.25
2024-03-12T11:38:34.005Z,95291.25
2024-03-12T11:42:09.760Z,95291.28
2024-03-12T11:45:35.939Z,95295.63
2024-03-12T11:48:46.031Z,95282.63
2024-03-12T11:51:58.424Z,95275.81
2024-03-12T11:55:01.742Z,95274.13
2024-03-12T11:58:10.094Z,95263.84
2024-03-12T12:01:20.769Z,95272.03
2024-03-12T12:04:24.738Z,95259.00
2024-03-12T12:07:29.256Z,95258.25
2024-03-12T12:10:31.624Z,95245.50
2024-03-12T12:13:34.059Z,95238.25
2024-03-12T12:16:39.529Z,95258.28
2024-03-12T12:19:43.190Z,95260.53
2024-03-12T12:22:47.732Z,95271.75
2024-03-12T12:25:52.790Z,95282.06
2024-03-12T12:28:56.553Z,95277.22
2024-03-12T12:32:00.095Z,95270.63
2024-03-12T12:35:03.075Z,95273.63
2024-03-12T12:38:07.521Z,95265.22
2024-03-12T12:41:13.595Z,95261.06
2024-03-12T12:44:18.647Z,95268.84
2024-03-12T12:47:25.184Z,95254.19
2024-03-12T12:50:29.009Z,95263.28
2024-03-12T12:53:33.836Z,95271.72
2024-03-12T12:56:45.488Z,95271.72
2024-03-12T12:59:49.360Z,95258.28
2024-03-12T13:02:51.400Z,95271.31
2024-03-12T13:06:12.543Z,95260.59
2024-03-12T13:10:12.422Z,95263.06
2024-03-12T13:13:22.614Z,95253.19
2024-03-12T13:16:25.782Z,95253.38
2024-03-12T13:19:28.652Z,95254.53
2024-03-12T13:22:33.711Z,95256.09
2024-03-12T13:25:42.365Z,95261.44
2024-03-12T13:28:47.145Z,95257.53
2024-03-12T13:31:49.450Z,95252.81
2024-03-12T13:34:52.249Z,95267.06
2024-03-12T13:38:03.990Z,95258.16
2024-03-12T13:41:06.436Z,95260.94
2024-03-12T13:44:09.752Z,95262.84
2024-03-12T13:47:14.894Z,95258.22
2024-03-12T13:50:17.299Z,95264.44
2024-03-12T13:53:23.195Z,95249.84
2024-03-12T13:56:25.410Z,95258.78
2024-03-12T13:59:28.935Z,95270.75
2024-03-12T14:02:31.154Z,95264.63
2024-03-12T14:05:33.273Z,95267.69
2024-03-12T14:08:35.904Z,95263.84
2024-03-12T14:11:38.476Z,95273.13
2024-03-12T14:14:42.616Z,95296.22
2024-03-12T14:17:44.916Z,95263.81
2024-03-12T14:20:47.701Z,95267.69
2024-03-12T14:23:50.963Z,95272.69
2024-03-12T14:26:56.886Z,95264.22
2024-03-12T14:30:00.665Z,95254.97
2024-03-12T14:33:03.092Z,95258.88
2024-03-12T14:36:34.598Z,95258.13
2024-03-12T14:39:37.077Z,95271.63
2024-03-12T14:42:43.606Z,95271.59
2024-03-12T14:45:51.011Z,95270.75
2024-03-12T14:48:55.536Z,95265.31
2024-03-12T14:51:57.961Z,95268.00
2024-03-12T14:55:00.814Z,95269.91
2024-03-12T14:58:03.690Z,95267.22
2024-03-12T15:01:08.931Z,95269.16
2024-03-12T15:04:11.329Z,95275.31
2024-03-12T15:07:13.481Z,95284.16
2024-03-12T15:10:15.384Z,95268.72
2024-03-12T15:13:18.381Z,95275.28
2024-03-12T15:16:25.997Z,95276.50
2024-03-12T15:19:28.655Z,95279.97
2024-03-12T15:22:30.723Z,95277.97
2024-03-12T15:25:37.676Z,95279.63
2024-03-12T15:28:39.626Z,95290.84
2024-03-12T15:31:43.807Z,95286.59
2024-03-12T15:34:49.547Z,95289.59
2024-03-12T15:37:51.404Z,95288.47
2024-03-12T15:40:53.915Z,95307.66
2024-03-12T15:44:02.347Z,95309.91
2024-03-12T15:47:22.278Z,95298.34
2024-03-12T15:50:33.671Z,95300.63
2024-03-12T15:53:39.357Z,95308.31
2024-03-12T15:56:42.199Z,95322.09
2024-03-12T15:59:53.842Z,95342.09
2024-03-12T16:10:05.370Z,95352.19
2024-03-12T16:13:25.662Z,95366.25
2024-03-12T16:16:28.154Z,95348.75
2024-03-12T16:19:33.629Z,95349.56
2024-03-12T16:22:39.178Z,95352.56
2024-03-12T16:25:41.560Z,95347.53
2024-03-12T16:28:45.185Z,95348.31
2024-03-12T16:31:49.463Z,95357.56
2024-03-12T16:34:53.592Z,95358.31
2024-03-12T16:37:56.182Z,95364.63
2024-03-12T16:40:59.150Z,95372.91
2024-03-12T16:44:20.572Z,95369.91
2024-03-12T16:47:26.796Z,95369.44
2024-03-12T16:50:33.060Z,95370.66
2024-03-12T16:53:36.403Z,95375.03
2024-03-12T16:56:38.855Z,95371.84
2024-03-12T16:59:41.642Z,95372.44
2024-03-12T17:03:00.164Z,95390.03
2024-03-12T17:06:04.747Z,95391.81
2024-03-12T17:09:07.986Z,95387.97
2024-03-12T17:12:11.501Z,95395.56
2024-03-12T17:15:14.311Z,95392.50
2024-03-12T17:18:17.521Z,95400.03
2024-03-12T17:21:21.640Z,95398.63
2024-03-12T17:24:24.000Z,95403.56
2024-03-12T17:27:30.497Z,95394.38
2024-03-12T17:30:32.924Z,95398.94
2024-03-12T17:33:35.866Z,95408.94
2024-03-12T17:36:39.725Z,95416.94
2024-03-12T17:39:45.344Z,95424.22
2024-03-12T17:42:48.358Z,95421.59
2024-03-12T17:45:50.615Z,95427.66
2024-03-12T17:48:55.876Z,95422.28
2024-03-12T17:52:00.092Z,95426.00
2024-03-12T17:55:02.400Z,95435.72
2024-03-12T17:58:05.036Z,95439.59
2024-03-12T18:01:08.261Z,95440.84
2024-03-12T18:04:10.967Z,95435.78
2024-03-12T18:07:22.064Z,95444.53
2024-03-12T18:10:27.572Z,95445.66
2024-03-12T18:13:30.321Z,95456.31
2024-03-12T18:16:32.262Z,95455.81
2024-03-12T18:19:34.026Z,95464.25
2024-03-12T18:22:37.856Z,95456.31
2024-03-12T18:25:39.865Z,95458.50
2024-03-12T18:28:41.833Z,95463.38
2024-03-12T18:31:43.992Z,95463.38
2024-03-12T18:34:45.802Z,95468.47
2024-03-12T18:37:49.234Z,95475.16
2024-03-12T18:40:51.114Z,95475.47
2024-03-12T18:43:52.885Z,95477.31
2024-03-12T18:46:54.726Z,95479.44
2024-03-12T18:49:57.106Z,95482.25
2024-03-12T18:53:00.894Z,95483.75
2024-03-12T18:56:03.299Z,95486.31
2024-03-12T18:59:05.802Z,95489.47
2024-03-12T19:02:24.680Z,95496.03
2024-03-12T19:05:26.717Z,95487.44
2024-03-12T19:08:30.507Z,95496.81
2024-03-12T19:11:32.905Z,95499.53
2024-03-12T19:14:37.558Z,95494.53
2024-03-12T19:17:41.462Z,95492.22
2024-03-12T19:20:44.439Z,95497.59
2024-03-12T19:23:48.645Z,95500.97
2024-03-12T19:26:50.599Z,95501.34
2024-03-12T19:29:53.271Z,95502.59
2024-03-12T19:32:55.717Z,95504.78
2024-03-12T19:35:58.531Z,95499.53
2024-03-12T19:39:02.416Z,95502.84
2024-03-12T19:42:05.365Z,95505.84
2024-03-12T19:45:08.801Z,95508.91
2024-03-12T19:48:12.124Z,95508.53
2024-03-12T19:51:14.335Z,95502.34
2024-03-12T19:54:17.708Z,95504.72
2024-03-12T19:57:20.328Z,95507.34
2024-03-12T20:00:23.813Z,95507.34
2024-03-12T20:03:25.922Z,95511.47
2024-03-12T20:06:28.092Z,95509.34
2024-03-12T20:09:31.401Z,95505.03
2024-03-12T20:12:33.978Z,95510.31
2024-03-12T20:15:36.337Z,95513.41
2024-03-12T20:18:38.331Z,95516.75
2024-03-12T20:21:40.438Z,95516.03
2024-03-12T20:24:44.190Z,95510.25
2024-03-12T20:27:47.617Z,95513.00
2024-03-12T20:30:49.754Z,95506.50
2024-03-12T20:33:54.557Z,95510.25
2024-03-12T20:36:56.723Z,95515.22
2024-03-12T20:40:00.876Z,95520.97
2024-03-12T20:43:02.979Z,95513.28
2024-03-12T20:46:05.617Z,95520.22
2024-03-12T20:49:07.784Z,95514.41
2024-03-12T20:52:09.983Z,95519.78
2024-03-12T20:55:13.736Z,95518.88
2024-03-12T20:58:15.684Z,95521.16
2024-03-12T21:01:17.766Z,95526.59
2024-03-12T21:04:21.616Z,95526.81
2024-03-12T21:07:24.215Z,95521.44
2024-03-12T21:10:27.602Z,95538.97
2024-03-12T21:13:29.753Z,95526.25
2024-03-12T21:16:31.830Z,95526.25
2024-03-12T21:19:34.036Z,95535.44
2024-03-12T21:22:36.083Z,95535.53
2024-03-12T21:25:39.690Z,95533.88
2024-03-12T21:28:41.582Z,95534.94
2024-03-12T21:31:43.686Z,95532.91
2024-03-12T21:34:46.261Z,95537.81
2024-03-12T21:37:48.170Z,95543.97
2024-03-12T21:40:51.415Z,95535.50
2024-03-12T21:43:53.383Z,95545.81
2024-03-12T21:46:55.358Z,95547.19
2024-03-12T21:49:57.344Z,95548.34
2024-03-12T21:52:59.279Z,95552.22
2024-03-12T21:56:02.406Z,95555.66
2024-03-12T21:59:04.266Z,95556.72
2024-03-12T22:02:06.193Z,95550.84
2024-03-12T22:05:08.277Z,95556.38
2024-03-12T22:08:10.368Z,95559.91
2024-03-12T22:11:14.484Z,95567.38
2024-03-12T22:14:16.305Z,95565.66
2024-03-12T22:17:18.179Z,95574.47
2024-03-12T22:20:20.359Z,95554.06
2024-03-12T22:23:22.174Z,95549.94
2024-03-12T22:26:25.438Z,95559.94
2024-03-12T22:29:27.465Z,95548.00
2024-03-12T22:32:29.599Z,95545.75
2024-03-12T22:35:31.675Z,95550.41
2024-03-12T22:38:34.389Z,95560.22
2024-03-12T22:41:37.755Z,95556.06
2024-03-12T22:44:40.313Z,95555.53
2024-03-12T22:47:42.551Z,95555.28
2024-03-12T22:50:44.802Z,95559.34
2024-03-12T22:53:46.855Z,95561.78
2024-03-12T22:56:50.404Z,95557.97
2024-03-12T22:59:52.654Z,95558.66
2024-03-12T23:02:56.830Z,95555.63
2024-03-12T23:05:59.297Z,95565.66
2024-03-12T23:09:01.598Z,95568.59
2024-03-12T23:12:05.278Z,95562.81
2024-03-12T23:15:07.725Z,95563.50
2024-03-12T23:18:10.136Z,95563.50
2024-03-12T23:21:12.055Z,95558.16
2024-03-12T23:24:13.833Z,95559.97
2024-03-12T23:27:17.153Z,95564.63
2024-03-12T23:30:19.148Z,95567.91
2024-03-12T23:33:21.039Z,95561.69
2024-03-12T23:36:23.003Z,95563.22
2024-03-12T23:39:24.898Z,95560.22
2024-03-12T23:42:28.327Z,95560.97
2024-03-12T23:45:30.219Z,95556.06
2024-03-12T23:48:31.991Z,95551.50
2024-03-12T23:51:33.720Z,95559.81
2024-03-12T23:54:35.697Z,95555.38
2024-03-12T23:57:39.383Z,95552.97
